Flight Track Log - Related Links

Times and Time Zones

All times are in EDT time to prevent confusion due to time zone crossing. See the GJS3707 flight status page for this flight to view local times or setup timezone preferences in your user account.

Time Position Orientation Groundspeed Altitude Reporting Facility
EDT Latitude Longitude Course Direction KTS MPH feet Rate Location/Type
Mon 03:17:22 PM 43.6456 -116.3189 342° North 234 269 6,700  Level Salt Lake Center
Mon 03:18:24 PM 43.6767 -116.2331 63° Northeast 252 290 8,800 1,887 Climbing Salt Lake Center
Mon 03:19:00 PM 43.6584 -115.5544 78° East  Level FlightAware Approximate
Mon 03:19:26 PM 43.6856 -116.1347 83° East 269 310 10,600  Level Salt Lake Center
Mon 03:20:00 PM 43.6772 -115.3844 83° East  Level FlightAware Approximate
Mon 03:20:28 PM 43.7025 -116.0003 80° East 321 369 12,000  Level Salt Lake Center
Mon 03:21:00 PM 43.7012 -115.2226 81° East  Level FlightAware Approximate
Mon 03:21:30 PM 43.7181 -115.8681 81° East 362 417 13,000  Level Salt Lake Center
Mon 03:22:31 PM 43.7383 -115.6958 81° East 400 460 14,600 1,610 Climbing Salt Lake Center
Mon 03:23:33 PM 43.7556 -115.5428 81° East 418 481 16,300 1,839 Climbing Salt Lake Center
Mon 03:24:35 PM 43.7767 -115.3606 81° East 430 495 18,400 1,887 Climbing Salt Lake Center
Mon 03:25:37 PM 43.7864 -115.2078 85° East 420 483 20,200 1,610 Climbing Salt Lake Center
Mon 03:26:38 PM 43.7986 -115.0619 83° East 402 463 21,700 1,171 Climbing Salt Lake Center
Mon 03:27:40 PM 43.8069 -114.8803 86° East 427 491 22,600 774 Climbing Salt Lake Center
Mon 03:28:42 PM 43.8175 -114.7150 85° East 449 517 23,300 774 Climbing Salt Lake Center
Mon 03:29:44 PM 43.8283 -114.5158 86° East 466 536 24,200 878 Climbing Salt Lake Center
Mon 03:30:45 PM 43.8392 -114.3381 85° East 483 556 25,100 976 Climbing Salt Lake Center
Mon 03:31:47 PM 43.8511 -114.1297 85° East 486 559 26,200 1,016 Climbing Salt Lake Center
Mon 03:32:49 PM 43.8606 -113.9503 86° East 490 564 27,200 968 Climbing Salt Lake Center
Mon 03:33:51 PM 43.8714 -113.7578 85° East 496 571 28,200 976 Climbing Salt Lake Center
Mon 03:34:52 PM 43.8811 -113.5469 86° East 491 565 29,200 829 Climbing Salt Lake Center
Mon 03:35:54 PM 43.8889 -113.3608 87° East 504 580 29,900 677 Climbing Salt Lake Center
Mon 03:36:56 PM 43.8983 -113.1761 86° East 503 579 30,600 774 Climbing Salt Lake Center
Mon 03:37:58 PM 43.9069 -112.9586 87° East 507 583 31,500 829 Climbing Salt Lake Center
Mon 03:38:59 PM 43.9156 -112.7753 86° East 501 577 32,300 829 Climbing Salt Lake Center
Mon 03:40:01 PM 43.9236 -112.5619 87° East 497 572 33,200 823 Climbing Salt Lake Center
Mon 03:41:03 PM 43.9314 -112.3797 87° East 496 571 34,000 829 Climbing Salt Lake Center
Mon 03:42:04 PM 43.9403 -112.1683 87° East 494 568 34,900 488 Climbing Salt Lake Center
Mon 03:43:06 PM 43.9458 -111.9892 87° East 489 563 35,000 48 Climbing Salt Lake Center
Mon 03:44:08 PM 43.9539 -111.7731 87° East 504 580 35,000  Level Salt Lake Center
Mon 03:45:09 PM 43.9606 -111.5867 87° East 509 586 35,000  Level Salt Lake Center
Mon 03:46:11 PM 43.9678 -111.3683 87° East 510 587 35,000  Level Salt Lake Center
Mon 03:47:13 PM 43.9736 -111.1844 87° East 505 581 35,000  Level Salt Lake Center
Mon 03:48:15 PM 43.9781 -110.9994 88° East 504 580 35,000  Level Salt Lake Center
Mon 03:49:16 PM 43.9856 -110.7819 87° East 506 582 35,000  Level Salt Lake Center
Mon 03:50:18 PM 43.9894 -110.5969 88° East 503 579 35,000  Level Salt Lake Center
Mon 03:51:19 PM 43.9942 -110.3806 88° East 504 580 35,000  Level Salt Lake Center
Mon 03:52:21 PM 43.9989 -110.1933 88° East 506 582 35,000  Level Salt Lake Center
Mon 03:53:23 PM 44.0031 -109.9756 88° East 507 583 35,000  Level Salt Lake Center
Mon 03:54:24 PM 44.0050 -109.7892 89° East 506 582 35,000  Level Salt Lake Center
Mon 03:55:26 PM 44.0097 -109.5711 88° East 507 583 35,000  Level Salt Lake Center
Mon 03:56:27 PM 44.0108 -109.3714 89° East 505 581 35,000  Level Salt Lake Center
Mon 03:57:29 PM 44.0142 -109.1842 89° East 506 582 35,000  Level Salt Lake Center
Mon 03:58:31 PM 44.0161 -108.9961 89° East 510 587 35,000  Level Salt Lake Center
Mon 03:59:32 PM 44.0183 -108.7764 89° East 511 588 35,000  Level Salt Lake Center
Mon 04:00:34 PM 44.0200 -108.5872 89° East 513 590 35,000  Level Salt Lake Center
Mon 04:01:35 PM 44.0203 -108.3703 90° East 507 583 35,000  Level Salt Lake Center
Mon 04:02:37 PM 44.0214 -108.1861 89° East 502 578 35,000  Level Salt Lake Center
Mon 04:03:38 PM 44.0211 -107.9706 90° East 503 579 35,000  Level Salt Lake Center
Mon 04:04:40 PM 44.0214 -107.7861 90° East 503 579 35,000  Level Salt Lake Center
Mon 04:05:41 PM 44.0214 -107.5983 90° East 509 586 35,000  Level Salt Lake Center
Mon 04:06:43 PM 44.0203 -107.3794 90° East 510 587 35,000  Level Salt Lake Center
Mon 04:07:43 PM 44.0206 -107.1928 90° East 506 582 35,000  Level Denver Center
Mon 04:08:45 PM 44.0192 -106.9744 90° East 508 585 35,000  Level Denver Center
Mon 04:09:47 PM 44.0178 -106.7739 90° East 502 578 35,000  Level Denver Center
Mon 04:10:49 PM 44.0161 -106.5872 91° East 505 581 35,000  Level Denver Center
Mon 04:11:50 PM 44.0131 -106.4025 91° East 500 575 35,000  Level Denver Center
Mon 04:12:52 PM 44.0122 -106.1861 90° East 502 578 35,000  Level Denver Center
Mon 04:13:54 PM 44.0100 -106.0006 91° East 503 579 35,000  Level Denver Center
Mon 04:14:56 PM 44.0044 -105.7864 92° East 498 573 35,000  Level Denver Center
Mon 04:15:58 PM 44.0025 -105.6008 91° East 500 575 35,000  Level Denver Center
Mon 04:17:00 PM 43.9969 -105.3853 92° East 500 575 35,000  Level Denver Center
Mon 04:18:02 PM 43.9931 -105.2003 92° East 500 575 35,000  Level Denver Center
Mon 04:19:04 PM 43.9881 -104.9853 92° East 498 573 35,000  Level Denver Center
Mon 04:20:06 PM 43.9833 -104.8003 92° East 499 574 35,000  Level Denver Center
Mon 04:21:07 PM 43.9781 -104.6136 92° East 503 579 35,000  Level Denver Center
Mon 04:22:09 PM 43.9717 -104.3975 92° East 502 578 35,000  Level Denver Center
Mon 04:23:11 PM 43.9661 -104.2139 92° East 498 573 35,000  Level Denver Center
Mon 04:24:25 PM 43.9581 -103.9969 93° East 504 580 35,000  Level Denver Center
Mon 04:26:12 PM 43.9458 -103.6286 93° East 497 572 35,000  Level Minneapolis Center
Mon 04:26:29 PM 43.9431 -103.5642 93° East 504 580 35,000  Level Denver Center
Mon 04:27:31 PM 43.9367 -103.3800 93° East 501 577 35,000  Level Denver Center
Mon 04:28:33 PM 43.9272 -103.1642 93° East 500 575 35,000  Level Denver Center
Mon 04:29:35 PM 43.9194 -102.9783 93° East 502 578 35,000  Level Denver Center
Mon 04:30:37 PM 43.9131 -102.7806 92° East 499 574 35,000  Level Denver Center
Mon 04:31:39 PM 43.9028 -102.5878 94° East 500 575 35,000  Level Denver Center
Mon 04:32:40 PM 43.8900 -102.3908 95° East 507 583 35,000  Level Denver Center
Mon 04:33:42 PM 43.8800 -102.1964 94° East 509 586 35,000  Level Denver Center
Mon 04:34:44 PM 43.8669 -101.9631 94° East 508 585 35,000  Level Denver Center
Mon 04:35:46 PM 43.8558 -101.7681 94° East 508 585 35,000  Level Denver Center
Mon 04:36:48 PM 43.8503 -101.5794 92° East 500 575 35,000  Level Denver Center
Mon 04:37:50 PM 43.8392 -101.3839 94° East 509 586 35,000  Level Denver Center
Mon 04:38:37 PM 43.8314 -101.2317 94° East 505 581 35,000  Level Minneapolis Center
Mon 04:39:39 PM 43.8192 -101.0350 95° East 510 587 35,000  Level Minneapolis Center
Mon 04:40:41 PM 43.8081 -100.8431 95° East 506 582 35,000  Level Minneapolis Center
Mon 04:41:43 PM 43.7933 -100.6106 95° East 507 583 35,000  Level Minneapolis Center
Mon 04:42:45 PM 43.7814 -100.4178 95° East 506 582 35,000  Level Minneapolis Center
Mon 04:43:47 PM 43.7678 -100.2250 96° East 507 583 35,000  Level Minneapolis Center
Mon 04:44:49 PM 43.7544 -100.0317 95° East 507 583 35,000  Level Minneapolis Center
Mon 04:45:51 PM 43.7414 -99.8422 95° East 502 578 35,000  Level Minneapolis Center
Mon 04:46:53 PM 43.7278 -99.6486 95° East 504 580 35,000  Level Minneapolis Center
Mon 04:47:55 PM 43.7108 -99.4197 96° East 503 579 35,000  Level Minneapolis Center
Mon 04:48:57 PM 43.6978 -99.2294 95° East 500 575 35,000  Level Minneapolis Center
Mon 04:49:59 PM 43.6822 -99.0386 96° East 501 577 35,000  Level Minneapolis Center
Mon 04:51:01 PM 43.6686 -98.8489 96° East 500 575 35,000  Level Minneapolis Center
Mon 04:52:03 PM 43.6517 -98.6397 96° East 500 575 35,000  Level Minneapolis Center
Mon 04:53:05 PM 43.6364 -98.4506 96° East 499 574 35,000  Level Minneapolis Center
Mon 04:54:07 PM 43.6203 -98.2622 97° East 497 572 35,000  Level Minneapolis Center
Mon 04:55:21 PM 43.6036 -98.0744 97° East 496 571 35,000  Level Minneapolis Center
Mon 04:56:24 PM 43.5817 -97.8103 96° East 497 572 35,000  Level Minneapolis Center
Mon 04:57:26 PM 43.5639 -97.6225 97° East 497 572 35,000  Level Minneapolis Center
Mon 04:58:28 PM 43.5464 -97.4322 97° East 502 578 35,000  Level Minneapolis Center
Mon 04:59:30 PM 43.5286 -97.2436 97° East 500 575 35,000  Level Minneapolis Center
Mon 05:00:32 PM 43.5114 -97.0536 97° East 501 577 35,000  Level Minneapolis Center
Mon 05:01:34 PM 43.4900 -96.8294 97° East 497 572 35,000  Level Minneapolis Center
Mon 05:02:37 PM 43.4725 -96.6433 97° East 495 570 35,000  Level Minneapolis Center
Mon 05:03:39 PM 43.4531 -96.4558 98° East 498 573 35,000  Level Minneapolis Center
Mon 05:04:41 PM 43.4344 -96.2675 98° East 500 575 35,000  Level Minneapolis Center
Mon 05:05:43 PM 43.4153 -96.0783 98° East 502 578 35,000  Level Minneapolis Center
Mon 05:06:45 PM 43.3911 -95.8519 98° East 503 579 35,000  Level Minneapolis Center
Mon 05:07:47 PM 43.3708 -95.6642 98° East 500 575 35,000  Level Minneapolis Center
Mon 05:08:49 PM 43.3503 -95.4750 98° East 503 579 35,000  Level Minneapolis Center
Mon 05:09:51 PM 43.3300 -95.2864 98° East 503 579 35,000  Level Minneapolis Center
Mon 05:11:05 PM 43.3086 -95.0972 99° East 503 579 35,000  Level Minneapolis Center
Mon 05:12:19 PM 43.2836 -94.8683 98° East 507 583 35,000  Level Minneapolis Center
Mon 05:13:22 PM 43.2514 -94.6053 99° East 502 578 35,000  Level Minneapolis Center
Mon 05:14:24 PM 43.2344 -94.4528 99° East 505 581 35,000  Level Minneapolis Center
Mon 05:15:26 PM 43.2089 -94.2400 99° East 506 582 35,000  Level Minneapolis Center
Mon 05:16:28 PM 43.1800 -94.0147 100° East 505 581 35,000  Level Minneapolis Center
Mon 05:17:30 PM 43.1561 -93.8275 100° East 506 582 35,000  Level Minneapolis Center
Mon 05:18:32 PM 43.1319 -93.6406 100° East 504 580 35,000  Level Minneapolis Center
Mon 05:19:34 PM 43.1094 -93.4517 99° East 506 582 35,000  Level Minneapolis Center
Mon 05:20:36 PM 43.0878 -93.2650 99° East 503 579 35,000  Level Minneapolis Center
Mon 05:21:38 PM 43.0769 -93.0767 94° East 501 577 35,000  Level Minneapolis Center
Mon 05:22:40 PM 43.0617 -92.8508 95° East 502 578 35,000  Level Minneapolis Center
Mon 05:23:42 PM 43.0492 -92.6611 95° East 505 581 35,000  Level Minneapolis Center
Mon 05:24:44 PM 43.0358 -92.4686 95° East 510 587 35,000 -48 Level Minneapolis Center
Mon 05:25:46 PM 43.0211 -92.2808 96° East 504 580 34,900 -581 Descending Minneapolis Center
Mon 05:26:48 PM 43.0075 -92.0914 96° East 504 580 33,800 -1,065 Descending Minneapolis Center
Mon 05:27:50 PM 42.9914 -91.8631 95° East 504 580 32,700 -1,016 Descending Minneapolis Center
Mon 05:28:52 PM 42.9767 -91.6661 96° East 513 590 31,700 -968 Descending Minneapolis Center
Mon 05:29:54 PM 42.9608 -91.4669 96° East 519 597 30,700 -968 Descending Minneapolis Center
Mon 05:30:56 PM 42.9453 -91.2864 97° East 483 556 29,700 -968 Descending Minneapolis Center
Mon 05:31:58 PM 42.9267 -91.1133 98° East 466 536 28,700 -982 Descending Minneapolis Center
Mon 05:32:46 PM 42.8511 -91.0094 135° Southeast 490 564 27,900 -927 Descending Chicago Center
Mon 05:33:48 PM 42.7467 -90.8939 141° Southeast 485 558 27,000 -435 Descending Chicago Center
Mon 05:34:50 PM 42.6436 -90.7828 142° Southeast 477 549 27,000  Level Chicago Center
Mon 05:35:52 PM 42.5822 -90.6028 115° Southeast 451 519 27,000  Level Chicago Center
Mon 05:36:54 PM 42.5794 -90.4328 91° East 455 524 27,000 -339 Level Chicago Center
Mon 05:37:56 PM 42.5786 -90.2636 90° East 452 520 26,300 -774 Descending Chicago Center
Mon 05:38:58 PM 42.5756 -90.0975 91° East 446 513 25,400 -1,016 Descending Chicago Center
Mon 05:40:00 PM 42.5725 -89.9092 91° East 443 510 24,200 -677 Descending Chicago Center
Mon 05:41:02 PM 42.5703 -89.7483 91° East 432 497 24,000 -435 Descending Chicago Center
Mon 05:42:04 PM 42.5669 -89.5883 92° East 428 493 23,300 -1,306 Descending Chicago Center
Mon 05:43:06 PM 42.5633 -89.4008 91° East 427 491 21,300 -2,160 Descending Chicago Center
Mon 05:44:09 PM 42.5603 -89.2464 91° East 417 480 18,800 -2,304 Descending Chicago Center
Mon 05:45:11 PM 42.5522 -89.0975 94° East 403 464 16,500 -2,226 Descending Chicago Center
Mon 05:46:13 PM 42.5147 -88.9611 110° East 392 451 14,200 -2,226 Descending Chicago Center
Mon 05:47:15 PM 42.4747 -88.8269 112° Southeast 387 445 11,900 -1,839 Descending Chicago Center
Mon 05:48:17 PM 42.4317 -88.6861 112° Southeast 355 409 10,400 -1,210 Descending Chicago Center
Mon 05:49:19 PM 42.3989 -88.5800 113° Southeast 316 364 9,400 -677 Descending Chicago Center
Mon 05:50:21 PM 42.3633 -88.4761 115° Southeast 309 356 9,000 -290 Descending Chicago Center
Mon 05:51:23 PM 42.3211 -88.3692 118° Southeast 303 349 8,800 -726 Descending Chicago Center
Mon 05:52:25 PM 42.2881 -88.2831 117° Southeast 275 316 7,500 -1,161 Descending Chicago Center
Mon 05:53:27 PM 42.2419 -88.2167 133° Southeast 255 293 6,400 -1,016 Descending Chicago Center
Mon 05:54:29 PM 42.1944 -88.1656 141° Southeast 229 264 5,400 -720 Descending Chicago Center
Mon 05:55:32 PM 42.1561 -88.1194 138° Southeast 196 226 4,900 -793 Descending Chicago Center
Mon 05:56:30 PM 42.1167 -88.0667 135° Southeast 186 214 3,800 -1,059 Descending Chicago TRACON
Mon 05:57:31 PM 42.0667 -88.0167 143° Southeast 178 205 2,800 -984 Descending Chicago TRACON

Login

Don't have an account? Register now (free) for customized features, flight alerts, and more!